sensor_id;sensor_type;location;lat;lon;timestamp;pressure;altitude;pressure_sealevel;temperature;humidity
54453;BME280;40363;52.270;10.546;2023-06-04T00:02:20;77009.34;;;-147.06;51.77
54453;BME280;40363;52.270;10.546;2023-06-04T00:04:47;77007.28;;;-147.06;54.52
54453;BME280;40363;52.270;10.546;2023-06-04T00:07:13;76997.00;;;-147.06;52.51
54453;BME280;40363;52.270;10.546;2023-06-04T00:09:40;77005.22;;;-147.06;53.47
54453;BME280;40363;52.270;10.546;2023-06-04T00:12:07;77011.38;;;-147.06;53.94
54453;BME280;40363;52.270;10.546;2023-06-04T00:14:35;77025.78;;;-147.06;54.90
54453;BME280;40363;52.270;10.546;2023-06-04T00:17:01;77027.84;;;-147.06;55.47
54453;BME280;40363;52.270;10.546;2023-06-04T00:19:28;77046.34;;;-147.06;55.84
54453;BME280;40363;52.270;10.546;2023-06-04T00:21:54;77040.16;;;-147.06;56.33
54453;BME280;40363;52.270;10.546;2023-06-04T00:24:21;77048.41;;;-147.06;56.32
54453;BME280;40363;52.270;10.546;2023-06-04T00:26:48;77048.41;;;-147.06;55.17
54453;BME280;40363;52.270;10.546;2023-06-04T00:29:14;77060.72;;;-147.06;54.99
54453;BME280;40363;52.270;10.546;2023-06-04T00:31:42;77060.72;;;-147.06;55.00
54453;BME280;40363;52.270;10.546;2023-06-04T00:34:09;77062.78;;;-147.06;55.14
54453;BME280;40363;52.270;10.546;2023-06-04T00:36:36;77081.28;;;-147.06;53.96
54453;BME280;40363;52.270;10.546;2023-06-04T00:39:03;77085.41;;;-147.06;54.08
54453;BME280;40363;52.270;10.546;2023-06-04T00:41:29;77089.50;;;-147.06;54.52
54453;BME280;40363;52.270;10.546;2023-06-04T00:43:56;77089.50;;;-147.06;54.76
54453;BME280;40363;52.270;10.546;2023-06-04T00:46:24;77095.69;;;-147.06;54.75
54453;BME280;40363;52.270;10.546;2023-06-04T00:48:54;77097.72;;;-147.06;54.47
54453;BME280;40363;52.270;10.546;2023-06-04T00:51:21;77118.28;;;-147.06;54.48
54453;BME280;40363;52.270;10.546;2023-06-04T00:53:48;77132.69;;;-147.06;54.33
54453;BME280;40363;52.270;10.546;2023-06-04T00:56:15;77147.06;;;-147.06;54.00
54453;BME280;40363;52.270;10.546;2023-06-04T00:58:42;77149.13;;;-147.06;54.86
54453;BME280;40363;52.270;10.546;2023-06-04T01:01:15;77155.28;;;-147.06;54.69
54453;BME280;40363;52.270;10.546;2023-06-04T01:03:44;77151.19;;;-147.06;53.96
54453;BME280;40363;52.270;10.546;2023-06-04T01:06:18;77155.28;;;-147.06;54.02
54453;BME280;40363;52.270;10.546;2023-06-04T01:08:47;77167.63;;;-147.06;54.86
54453;BME280;40363;52.270;10.546;2023-06-04T01:11:14;77175.84;;;-147.06;54.69
54453;BME280;40363;52.270;10.546;2023-06-04T01:13:41;77179.97;;;-147.06;54.67
54453;BME280;40363;52.270;10.546;2023-06-04T01:16:08;77188.19;;;-147.06;54.73
54453;BME280;40363;52.270;10.546;2023-06-04T01:18:38;77177.91;;;-147.06;54.17
54453;BME280;40363;52.270;10.546;2023-06-04T01:21:07;77184.06;;;-147.06;53.84
54453;BME280;40363;52.270;10.546;2023-06-04T01:23:40;77186.13;;;-147.06;54.01
54453;BME280;40363;52.270;10.546;2023-06-04T01:26:11;77198.47;;;-147.06;54.20
54453;BME280;40363;52.270;10.546;2023-06-04T01:28:39;77194.34;;;-147.06;54.13
54453;BME280;40363;52.270;10.546;2023-06-04T01:31:06;77194.34;;;-147.06;54.52
54453;BME280;40363;52.270;10.546;2023-06-04T01:33:33;77190.22;;;-147.06;54.92
54453;BME280;40363;52.270;10.546;2023-06-04T01:36:00;77188.19;;;-147.06;55.07
54453;BME280;40363;52.270;10.546;2023-06-04T01:38:27;77204.63;;;-147.06;55.17
54453;BME280;40363;52.270;10.546;2023-06-04T01:40:55;77200.50;;;-147.06;55.19
54453;BME280;40363;52.270;10.546;2023-06-04T01:43:26;77202.56;;;-147.06;55.12
54453;BME280;40363;52.270;10.546;2023-06-04T01:45:53;77208.75;;;-147.06;55.17
54453;BME280;40363;52.270;10.546;2023-06-04T01:48:22;77208.75;;;-147.06;55.02
54453;BME280;40363;52.270;10.546;2023-06-04T01:50:48;77212.84;;;-147.06;55.54
54453;BME280;40363;52.270;10.546;2023-06-04T01:53:15;77216.97;;;-147.06;55.77
54453;BME280;40363;52.270;10.546;2023-06-04T01:55:41;77227.25;;;-147.06;56.07
54453;BME280;40363;52.270;10.546;2023-06-04T01:58:09;77231.34;;;-147.06;56.39
54453;BME280;40363;52.270;10.546;2023-06-04T02:00:36;77249.84;;;-147.06;56.66
54453;BME280;40363;52.270;10.546;2023-06-04T02:03:02;77258.06;;;-147.06;56.56
54453;BME280;40363;52.270;10.546;2023-06-04T02:05:29;77262.19;;;-147.06;56.79
54453;BME280;40363;52.270;10.546;2023-06-04T02:07:56;77258.06;;;-147.06;57.26
54453;BME280;40363;52.270;10.546;2023-06-04T02:10:27;77264.25;;;-147.06;57.57
54453;BME280;40363;52.270;10.546;2023-06-04T02:12:55;77270.41;;;-147.06;57.73
54453;BME280;40363;52.270;10.546;2023-06-04T02:15:24;77274.53;;;-147.06;57.26
54453;BME280;40363;52.270;10.546;2023-06-04T02:17:53;77274.53;;;-147.06;57.61
54453;BME280;40363;52.270;10.546;2023-06-04T02:20:23;77278.63;;;-147.06;58.16
54453;BME280;40363;52.270;10.546;2023-06-04T02:22:50;77282.75;;;-147.06;58.60
54453;BME280;40363;52.270;10.546;2023-06-04T02:25:16;77286.84;;;-147.06;59.12
54453;BME280;40363;52.270;10.546;2023-06-04T02:27:43;77299.19;;;-147.06;58.78
54453;BME280;40363;52.270;10.546;2023-06-04T02:30:10;77299.19;;;-147.06;59.57
54453;BME280;40363;52.270;10.546;2023-06-04T02:32:38;77301.25;;;-147.06;59.48
54453;BME280;40363;52.270;10.546;2023-06-04T02:35:06;77315.63;;;-147.06;59.71
54453;BME280;40363;52.270;10.546;2023-06-04T02:37:33;77327.97;;;-147.06;60.29
54453;BME280;40363;52.270;10.546;2023-06-04T02:39:59;77327.97;;;-147.06;60.55
54453;BME280;40363;52.270;10.546;2023-06-04T02:42:26;77334.13;;;-147.06;60.88
54453;BME280;40363;52.270;10.546;2023-06-04T02:44:52;77344.41;;;-147.06;61.62
54453;BME280;40363;52.270;10.546;2023-06-04T02:47:19;77356.75;;;-147.06;62.29
54453;BME280;40363;52.270;10.546;2023-06-04T02:49:47;77364.97;;;-147.06;62.95
54453;BME280;40363;52.270;10.546;2023-06-04T02:52:13;77375.25;;;-147.06;63.59
54453;BME280;40363;52.270;10.546;2023-06-04T02:54:40;77375.25;;;-147.06;64.13
54453;BME280;40363;52.270;10.546;2023-06-04T02:57:06;77377.31;;;-147.06;64.57
54453;BME280;40363;52.270;10.546;2023-06-04T02:59:33;77373.19;;;-147.06;64.76
54453;BME280;40363;52.270;10.546;2023-06-04T03:02:00;77371.16;;;-147.06;65.17
54453;BME280;40363;52.270;10.546;2023-06-04T03:04:27;77385.53;;;-147.06;65.77
54453;BME280;40363;52.270;10.546;2023-06-04T03:07:00;77389.66;;;-147.06;65.64
54453;BME280;40363;52.270;10.546;2023-06-04T03:09:28;77401.97;;;-147.06;66.23
54453;BME280;40363;52.270;10.546;2023-06-04T03:11:54;77406.09;;;-147.06;66.27
54453;BME280;40363;52.270;10.546;2023-06-04T03:14:21;77410.22;;;-147.06;66.85
54453;BME280;40363;52.270;10.546;2023-06-04T03:16:48;77418.44;;;-147.06;67.34
54453;BME280;40363;52.270;10.546;2023-06-04T03:19:17;77436.94;;;-147.06;68.17
54453;BME280;40363;52.270;10.546;2023-06-04T03:21:44;77436.94;;;-147.06;68.54
54453;BME280;40363;52.270;10.546;2023-06-04T03:24:12;77426.66;;;-147.06;69.10
54453;BME280;40363;52.270;10.546;2023-06-04T03:26:39;77445.16;;;-147.06;69.34
54453;BME280;40363;52.270;10.546;2023-06-04T03:29:06;77430.75;;;-147.06;69.14
54453;BME280;40363;52.270;10.546;2023-06-04T03:31:32;77424.59;;;-147.06;68.39
54453;BME280;40363;52.270;10.546;2023-06-04T03:33:59;77426.66;;;-147.06;68.62
54453;BME280;40363;52.270;10.546;2023-06-04T03:36:25;77426.66;;;-147.06;68.99
54453;BME280;40363;52.270;10.546;2023-06-04T03:38:57;77422.53;;;-147.06;68.54
54453;BME280;40363;52.270;10.546;2023-06-04T03:41:25;77426.66;;;-147.06;69.68
54453;BME280;40363;52.270;10.546;2023-06-04T03:43:52;77418.44;;;-147.06;69.49
54453;BME280;40363;52.270;10.546;2023-06-04T03:46:19;77428.72;;;-147.06;70.63
54453;BME280;40363;52.270;10.546;2023-06-04T03:48:45;77418.44;;;-147.06;70.55
54453;BME280;40363;52.270;10.546;2023-06-04T03:51:12;77414.31;;;-147.06;71.15
54453;BME280;40363;52.270;10.546;2023-06-04T03:53:38;77414.31;;;-147.06;71.67
54453;BME280;40363;52.270;10.546;2023-06-04T03:56:05;77408.16;;;-147.06;71.44
54453;BME280;40363;52.270;10.546;2023-06-04T03:58:34;77401.97;;;-147.06;71.62
54453;BME280;40363;52.270;10.546;2023-06-04T04:01:01;77395.81;;;-147.06;70.91
54453;BME280;40363;52.270;10.546;2023-06-04T04:03:30;77401.97;;;-147.06;70.85
54453;BME280;40363;52.270;10.546;2023-06-04T04:05:56;77395.81;;;-147.06;71.24
54453;BME280;40363;52.270;10.546;2023-06-04T04:08:23;77377.31;;;-147.06;71.09
54453;BME280;40363;52.270;10.546;2023-06-04T04:10:51;77377.31;;;-147.06;71.37
54453;BME280;40363;52.270;10.546;2023-06-04T04:13:17;77369.09;;;-147.06;71.59
54453;BME280;40363;52.270;10.546;2023-06-04T04:15:45;77360.88;;;-147.06;71.84
54453;BME280;40363;52.270;10.546;2023-06-04T04:18:12;77358.81;;;-147.06;72.31
54453;BME280;40363;52.270;10.546;2023-06-04T04:20:38;77360.88;;;-147.06;71.92
54453;BME280;40363;52.270;10.546;2023-06-04T04:23:05;77352.66;;;-147.06;71.33
54453;BME280;40363;52.270;10.546;2023-06-04T04:25:33;77356.75;;;-147.06;71.24
54453;BME280;40363;52.270;10.546;2023-06-04T04:28:02;77346.47;;;-147.06;70.92
54453;BME280;40363;52.270;10.546;2023-06-04T04:30:31;77340.31;;;-147.06;70.07
54453;BME280;40363;52.270;10.546;2023-06-04T04:33:01;77319.75;;;-147.06;70.52
54453;BME280;40363;52.270;10.546;2023-06-04T04:35:30;77323.88;;;-147.06;68.98
54453;BME280;40363;52.270;10.546;2023-06-04T04:37:57;77311.53;;;-147.06;68.92
54453;BME280;40363;52.270;10.546;2023-06-04T04:40:24;77319.75;;;-147.06;70.16
54453;BME280;40363;52.270;10.546;2023-06-04T04:42:51;77317.69;;;-147.06;69.56
54453;BME280;40363;52.270;10.546;2023-06-04T04:45:17;77307.41;;;-147.06;69.93
54453;BME280;40363;52.270;10.546;2023-06-04T04:47:44;77295.06;;;-147.06;69.49
54453;BME280;40363;52.270;10.546;2023-06-04T04:50:12;77286.84;;;-147.06;69.76
54453;BME280;40363;52.270;10.546;2023-06-04T04:52:39;77282.75;;;-147.06;68.50
54453;BME280;40363;52.270;10.546;2023-06-04T04:55:06;77264.25;;;-147.06;68.01
54453;BME280;40363;52.270;10.546;2023-06-04T04:57:33;77245.75;;;-147.06;67.21
54453;BME280;40363;52.270;10.546;2023-06-04T05:00:00;77235.47;;;-147.06;66.05
54453;BME280;40363;52.270;10.546;2023-06-04T05:02:26;77235.47;;;-147.06;65.24
54453;BME280;40363;52.270;10.546;2023-06-04T05:04:53;77223.13;;;-147.06;66.57
54453;BME280;40363;52.270;10.546;2023-06-04T05:07:21;77200.50;;;-147.06;65.87
54453;BME280;40363;52.270;10.546;2023-06-04T05:09:48;77190.22;;;-147.06;65.31
54453;BME280;40363;52.270;10.546;2023-06-04T05:12:15;77179.97;;;-147.06;64.95
54453;BME280;40363;52.270;10.546;2023-06-04T05:14:42;77165.56;;;-147.06;64.59
54453;BME280;40363;52.270;10.546;2023-06-04T05:17:09;77147.06;;;-147.06;64.23
54453;BME280;40363;52.270;10.546;2023-06-04T05:19:38;77128.56;;;-147.06;64.34
54453;BME280;40363;52.270;10.546;2023-06-04T05:22:05;77097.72;;;-147.06;63.79
54453;BME280;40363;52.270;10.546;2023-06-04T05:24:33;77101.84;;;-147.06;63.39
54453;BME280;40363;52.270;10.546;2023-06-04T05:27:00;77054.56;;;-147.06;63.27
54453;BME280;40363;52.270;10.546;2023-06-04T05:29:28;77017.56;;;-147.06;60.47
54453;BME280;40363;52.270;10.546;2023-06-04T05:31:55;76988.78;;;-147.06;58.66
54453;BME280;40363;52.270;10.546;2023-06-04T05:34:22;76945.63;;;-147.06;58.54
54453;BME280;40363;52.270;10.546;2023-06-04T05:36:48;76945.63;;;-147.06;58.07
54453;BME280;40363;52.270;10.546;2023-06-04T05:39:15;76927.13;;;-147.06;59.48
54453;BME280;40363;52.270;10.546;2023-06-04T05:41:45;76906.56;;;-147.06;57.31
54453;BME280;40363;52.270;10.546;2023-06-04T05:44:11;76886.00;;;-147.06;56.85
54453;BME280;40363;52.270;10.546;2023-06-04T05:46:38;76863.38;;;-147.06;55.65
54453;BME280;40363;52.270;10.546;2023-06-04T05:49:05;76834.63;;;-147.06;54.92
54453;BME280;40363;52.270;10.546;2023-06-04T05:51:32;76838.72;;;-147.06;52.58
54453;BME280;40363;52.270;10.546;2023-06-04T05:53:58;76830.50;;;-147.06;53.78
54453;BME280;40363;52.270;10.546;2023-06-04T05:56:25;76824.34;;;-147.06;51.69
54453;BME280;40363;52.270;10.546;2023-06-04T05:58:53;76797.63;;;-147.06;50.89
54453;BME280;40363;52.270;10.546;2023-06-04T06:01:20;76727.72;;;-147.06;50.26
54453;BME280;40363;52.270;10.546;2023-06-04T06:03:47;76692.78;;;-147.06;48.34
54453;BME280;40363;52.270;10.546;2023-06-04T06:06:13;76645.50;;;-147.06;47.71
54453;BME280;40363;52.270;10.546;2023-06-04T06:08:40;76548.91;;;-147.06;46.56
54453;BME280;40363;52.270;10.546;2023-06-04T06:11:06;76423.53;;;-147.06;44.59
54453;BME280;40363;52.270;10.546;2023-06-04T06:13:33;76333.09;;;-147.06;41.96
54453;BME280;40363;52.270;10.546;2023-06-04T06:16:01;76168.66;;;-147.06;39.22
54453;BME280;40363;52.270;10.546;2023-06-04T06:18:27;76026.84;;;-147.06;37.92
54453;BME280;40363;52.270;10.546;2023-06-04T06:20:54;75940.53;;;-147.06;36.37
54453;BME280;40363;52.270;10.546;2023-06-04T06:23:20;76020.69;;;-147.06;36.21
54453;BME280;40363;52.270;10.546;2023-06-04T06:25:49;75952.88;;;-147.06;35.37
54453;BME280;40363;52.270;10.546;2023-06-04T06:28:17;75950.81;;;-147.06;35.43
54453;BME280;40363;52.270;10.546;2023-06-04T06:30:43;75880.94;;;-147.06;34.94
54453;BME280;40363;52.270;10.546;2023-06-04T06:33:12;75948.75;;;-147.06;35.43
54453;BME280;40363;52.270;10.546;2023-06-04T06:35:38;75893.28;;;-147.06;34.47
54453;BME280;40363;52.270;10.546;2023-06-04T06:38:05;75774.09;;;-147.06;33.52
54453;BME280;40363;52.270;10.546;2023-06-04T06:40:31;75663.13;;;-147.06;32.13
54453;BME280;40363;52.270;10.546;2023-06-04T06:42:58;75626.13;;;-147.06;32.22
54453;BME280;40363;52.270;10.546;2023-06-04T06:45:24;75595.31;;;-147.06;31.93
54453;BME280;40363;52.270;10.546;2023-06-04T06:47:51;75539.81;;;-147.06;31.42
54453;BME280;40363;52.270;10.546;2023-06-04T06:50:19;75574.75;;;-147.06;31.46
54453;BME280;40363;52.270;10.546;2023-06-04T06:52:46;75498.72;;;-147.06;31.41
54453;BME280;40363;52.270;10.546;2023-06-04T06:55:12;75500.78;;;-147.06;31.35
54453;BME280;40363;52.270;10.546;2023-06-04T06:57:39;75564.47;;;-147.06;31.45
54453;BME280;40363;52.270;10.546;2023-06-04T07:00:06;75504.88;;;-147.06;30.65
54453;BME280;40363;52.270;10.546;2023-06-04T07:02:34;75457.63;;;-147.06;30.15
54453;BME280;40363;52.270;10.546;2023-06-04T07:05:00;75459.69;;;-147.06;30.15
54453;BME280;40363;52.270;10.546;2023-06-04T07:07:28;75457.63;;;-147.06;30.21
54453;BME280;40363;52.270;10.546;2023-06-04T07:09:55;75463.78;;;-147.06;30.00
54453;BME280;40363;52.270;10.546;2023-06-04T07:12:21;75367.22;;;-147.06;29.46
54453;BME280;40363;52.270;10.546;2023-06-04T07:14:48;75361.06;;;-147.06;29.29
54453;BME280;40363;52.270;10.546;2023-06-04T07:17:15;75474.06;;;-147.06;30.16
54453;BME280;40363;52.270;10.546;2023-06-04T07:19:42;75465.84;;;-147.06;29.78
54453;BME280;40363;52.270;10.546;2023-06-04T07:22:08;75515.16;;;-147.06;29.92
54453;BME280;40363;52.270;10.546;2023-06-04T07:24:37;75371.31;;;-147.06;28.65
54453;BME280;40363;52.270;10.546;2023-06-04T07:27:10;75315.84;;;-147.06;27.87
54453;BME280;40363;52.270;10.546;2023-06-04T07:29:36;75289.13;;;-147.06;27.40
54453;BME280;40363;52.270;10.546;2023-06-04T07:32:04;75322.00;;;-147.06;27.26
54453;BME280;40363;52.270;10.546;2023-06-04T07:34:30;75217.22;;;-147.06;27.17
54453;BME280;40363;52.270;10.546;2023-06-04T07:36:57;75233.66;;;-147.06;26.93
54453;BME280;40363;52.270;10.546;2023-06-04T07:39:24;75221.31;;;-147.06;27.18
54453;BME280;40363;52.270;10.546;2023-06-04T07:41:52;75245.97;;;-147.06;26.71
54453;BME280;40363;52.270;10.546;2023-06-04T07:44:19;75235.72;;;-147.06;26.46
54453;BME280;40363;52.270;10.546;2023-06-04T07:46:46;75227.50;;;-147.06;27.06
54453;BME280;40363;52.270;10.546;2023-06-04T07:49:12;75272.69;;;-147.06;27.62
54453;BME280;40363;52.270;10.546;2023-06-04T07:51:39;75309.69;;;-147.06;27.66
54453;BME280;40363;52.270;10.546;2023-06-04T07:54:05;75204.88;;;-147.06;27.25
54453;BME280;40363;52.270;10.546;2023-06-04T07:56:32;75176.13;;;-147.06;27.68
54453;BME280;40363;52.270;10.546;2023-06-04T07:59:00;75155.56;;;-147.06;27.14
54453;BME280;40363;52.270;10.546;2023-06-04T08:01:27;75248.03;;;-147.06;27.81
54453;BME280;40363;52.270;10.546;2023-06-04T08:03:54;75190.50;;;-147.06;25.99
54453;BME280;40363;52.270;10.546;2023-06-04T08:06:21;75324.06;;;-147.06;26.45
54453;BME280;40363;52.270;10.546;2023-06-04T08:08:49;75282.97;;;-147.06;26.53
54453;BME280;40363;52.270;10.546;2023-06-04T08:11:16;75233.66;;;-147.06;26.38
54453;BME280;40363;52.270;10.546;2023-06-04T08:13:43;75498.72;;;-147.06;28.12
54453;BME280;40363;52.270;10.546;2023-06-04T08:16:11;75313.78;;;-147.06;27.50
54453;BME280;40363;52.270;10.546;2023-06-04T08:18:38;75229.53;;;-147.06;26.46
54453;BME280;40363;52.270;10.546;2023-06-04T08:21:04;75149.41;;;-147.06;26.60
54453;BME280;40363;52.270;10.546;2023-06-04T08:23:32;75445.31;;;-147.06;26.60
54453;BME280;40363;52.270;10.546;2023-06-04T08:25:59;75515.16;;;-147.06;27.59
54453;BME280;40363;52.270;10.546;2023-06-04T08:28:26;75539.81;;;-147.06;27.39
54453;BME280;40363;52.270;10.546;2023-06-04T08:30:52;75562.44;;;-147.06;27.43
54453;BME280;40363;52.270;10.546;2023-06-04T08:33:20;75350.78;;;-147.06;26.88
54453;BME280;40363;52.270;10.546;2023-06-04T08:35:47;75365.16;;;-147.06;26.33
54453;BME280;40363;52.270;10.546;2023-06-04T08:38:14;75237.75;;;-147.06;26.49
54453;BME280;40363;52.270;10.546;2023-06-04T08:40:41;75324.06;;;-147.06;26.21
54453;BME280;40363;52.270;10.546;2023-06-04T08:43:10;75375.44;;;-147.06;26.28
54453;BME280;40363;52.270;10.546;2023-06-04T08:45:39;75745.31;;;-147.06;28.16
54453;BME280;40363;52.270;10.546;2023-06-04T08:48:09;75546.00;;;-147.06;27.75
54453;BME280;40363;52.270;10.546;2023-06-04T08:50:39;75498.72;;;-147.06;27.17
54453;BME280;40363;52.270;10.546;2023-06-04T08:53:11;75354.88;;;-147.06;27.22
54453;BME280;40363;52.270;10.546;2023-06-04T08:55:40;75472.00;;;-147.06;26.63
54453;BME280;40363;52.270;10.546;2023-06-04T08:58:07;75432.97;;;-147.06;27.15
54453;BME280;40363;52.270;10.546;2023-06-04T09:00:35;75328.19;;;-147.06;26.01
54453;BME280;40363;52.270;10.546;2023-06-04T09:03:02;75285.03;;;-147.06;26.14
54453;BME280;40363;52.270;10.546;2023-06-04T09:05:30;75324.06;;;-147.06;26.54
54453;BME280;40363;52.270;10.546;2023-06-04T09:08:00;75348.72;;;-147.06;26.49
54453;BME280;40363;52.270;10.546;2023-06-04T09:10:29;75359.00;;;-147.06;26.90
54453;BME280;40363;52.270;10.546;2023-06-04T09:12:57;75344.63;;;-147.06;26.67
54453;BME280;40363;52.270;10.546;2023-06-04T09:15:27;75459.69;;;-147.06;26.94
54453;BME280;40363;52.270;10.546;2023-06-04T09:17:54;75515.16;;;-147.06;26.90
54453;BME280;40363;52.270;10.546;2023-06-04T09:20:21;75640.50;;;-147.06;26.23
54453;BME280;40363;52.270;10.546;2023-06-04T09:22:48;75529.53;;;-147.06;26.57
54453;BME280;40363;52.270;10.546;2023-06-04T09:25:23;75381.59;;;-147.06;26.06
54453;BME280;40363;52.270;10.546;2023-06-04T09:27:51;75369.28;;;-147.06;26.25
54453;BME280;40363;52.270;10.546;2023-06-04T09:30:21;75416.53;;;-147.06;26.65
54453;BME280;40363;52.270;10.546;2023-06-04T09:32:50;75408.31;;;-147.06;27.16
54453;BME280;40363;52.270;10.546;2023-06-04T09:35:19;75361.06;;;-147.06;26.68
54453;BME280;40363;52.270;10.546;2023-06-04T09:37:52;75280.91;;;-147.06;25.68
54453;BME280;40363;52.270;10.546;2023-06-04T09:40:19;75309.69;;;-147.06;26.24
54453;BME280;40363;52.270;10.546;2023-06-04T09:42:48;75272.69;;;-147.06;25.82
54453;BME280;40363;52.270;10.546;2023-06-04T09:45:26;75437.06;;;-147.06;26.19
54453;BME280;40363;52.270;10.546;2023-06-04T09:47:54;75350.78;;;-147.06;26.17
54453;BME280;40363;52.270;10.546;2023-06-04T09:50:25;75262.41;;;-147.06;25.73
54453;BME280;40363;52.270;10.546;2023-06-04T09:52:51;75252.16;;;-147.06;25.30
54453;BME280;40363;52.270;10.546;2023-06-04T09:55:18;75313.78;;;-147.06;25.53
54453;BME280;40363;52.270;10.546;2023-06-04T09:57:49;75293.25;;;-147.06;25.37
54453;BME280;40363;52.270;10.546;2023-06-04T10:00:17;75486.41;;;-147.06;26.28
54453;BME280;40363;52.270;10.546;2023-06-04T10:02:46;75435.03;;;-147.06;26.11
54453;BME280;40363;52.270;10.546;2023-06-04T10:05:14;75449.41;;;-147.06;26.76
54453;BME280;40363;52.270;10.546;2023-06-04T10:07:45;75437.06;;;-147.06;26.23
54453;BME280;40363;52.270;10.546;2023-06-04T10:10:15;75593.25;;;-147.06;26.37
54453;BME280;40363;52.270;10.546;2023-06-04T10:12:42;75502.84;;;-147.06;26.30
54453;BME280;40363;52.270;10.546;2023-06-04T10:15:12;75757.66;;;-147.06;26.85
54453;BME280;40363;52.270;10.546;2023-06-04T10:17:39;75554.22;;;-147.06;26.28
54453;BME280;40363;52.270;10.546;2023-06-04T10:20:07;75494.63;;;-147.06;26.26
54453;BME280;40363;52.270;10.546;2023-06-04T10:22:35;75474.06;;;-147.06;26.27
54453;BME280;40363;52.270;10.546;2023-06-04T10:25:01;75504.88;;;-147.06;27.07
54453;BME280;40363;52.270;10.546;2023-06-04T10:27:31;75437.06;;;-147.06;26.60
54453;BME280;40363;52.270;10.546;2023-06-04T10:30:00;75482.28;;;-147.06;27.06
54453;BME280;40363;52.270;10.546;2023-06-04T10:32:29;75482.28;;;-147.06;27.61
54453;BME280;40363;52.270;10.546;2023-06-04T10:34:56;75488.44;;;-147.06;27.33
54453;BME280;40363;52.270;10.546;2023-06-04T10:37:24;75496.66;;;-147.06;26.98
54453;BME280;40363;52.270;10.546;2023-06-04T10:39:52;75478.19;;;-147.06;26.85
54453;BME280;40363;52.270;10.546;2023-06-04T10:42:19;75490.50;;;-147.06;27.51
54453;BME280;40363;52.270;10.546;2023-06-04T10:44:48;75469.97;;;-147.06;27.60
54453;BME280;40363;52.270;10.546;2023-06-04T10:47:19;75445.31;;;-147.06;26.60
54453;BME280;40363;52.270;10.546;2023-06-04T10:49:48;75582.97;;;-147.06;27.05
54453;BME280;40363;52.270;10.546;2023-06-04T10:52:15;75498.72;;;-147.06;26.94
54453;BME280;40363;52.270;10.546;2023-06-04T10:54:42;75476.13;;;-147.06;26.57
54453;BME280;40363;52.270;10.546;2023-06-04T10:57:13;75486.41;;;-147.06;26.67
54453;BME280;40363;52.270;10.546;2023-06-04T10:59:39;75472.00;;;-147.06;26.86
54453;BME280;40363;52.270;10.546;2023-06-04T11:02:07;75461.75;;;-147.06;26.70
54453;BME280;40363;52.270;10.546;2023-06-04T11:04:35;75465.84;;;-147.06;26.47
54453;BME280;40363;52.270;10.546;2023-06-04T11:07:07;75474.06;;;-147.06;26.96
54453;BME280;40363;52.270;10.546;2023-06-04T11:09:34;75599.41;;;-147.06;27.11
54453;BME280;40363;52.270;10.546;2023-06-04T11:12:03;75535.72;;;-147.06;27.22
54453;BME280;40363;52.270;10.546;2023-06-04T11:14:30;75494.63;;;-147.06;27.81
54453;BME280;40363;52.270;10.546;2023-06-04T11:16:57;75490.50;;;-147.06;27.38
54453;BME280;40363;52.270;10.546;2023-06-04T11:19:23;75543.94;;;-147.06;27.41
54453;BME280;40363;52.270;10.546;2023-06-04T11:21:50;75539.81;;;-147.06;26.38
54453;BME280;40363;52.270;10.546;2023-06-04T11:24:18;75611.75;;;-147.06;27.18
54453;BME280;40363;52.270;10.546;2023-06-04T11:26:46;75617.91;;;-147.06;28.30
54453;BME280;40363;52.270;10.546;2023-06-04T11:29:13;75628.19;;;-147.06;28.36
54453;BME280;40363;52.270;10.546;2023-06-04T11:31:42;75638.47;;;-147.06;28.18
54453;BME280;40363;52.270;10.546;2023-06-04T11:34:09;75737.09;;;-147.06;28.56
54453;BME280;40363;52.270;10.546;2023-06-04T11:36:37;75788.47;;;-147.06;28.05
54453;BME280;40363;52.270;10.546;2023-06-04T11:39:04;75761.75;;;-147.06;27.86
54453;BME280;40363;52.270;10.546;2023-06-04T11:41:33;75712.44;;;-147.06;27.94
54453;BME280;40363;52.270;10.546;2023-06-04T11:44:02;75691.88;;;-147.06;27.62
54453;BME280;40363;52.270;10.546;2023-06-04T11:46:30;75659.00;;;-147.06;27.90
54453;BME280;40363;52.270;10.546;2023-06-04T11:48:57;75615.84;;;-147.06;27.46
54453;BME280;40363;52.270;10.546;2023-06-04T11:51:23;75593.25;;;-147.06;27.65
54453;BME280;40363;52.270;10.546;2023-06-04T11:53:50;75566.53;;;-147.06;27.65
54453;BME280;40363;52.270;10.546;2023-06-04T11:56:17;75607.63;;;-147.06;28.67
54453;BME280;40363;52.270;10.546;2023-06-04T11:58:45;75696.00;;;-147.06;28.81
54453;BME280;40363;52.270;10.546;2023-06-04T12:01:12;75669.28;;;-147.06;28.59
54453;BME280;40363;52.270;10.546;2023-06-04T12:03:41;75656.94;;;-147.06;28.39
54453;BME280;40363;52.270;10.546;2023-06-04T12:06:15;75714.50;;;-147.06;28.69
54453;BME280;40363;52.270;10.546;2023-06-04T12:08:49;75753.53;;;-147.06;28.98
54453;BME280;40363;52.270;10.546;2023-06-04T12:11:28;75749.44;;;-147.06;28.09
54453;BME280;40363;52.270;10.546;2023-06-04T12:13:59;75763.81;;;-147.06;28.05
54453;BME280;40363;52.270;10.546;2023-06-04T12:16:26;75716.53;;;-147.06;27.79
54453;BME280;40363;52.270;10.546;2023-06-04T12:19:04;75696.00;;;-147.06;27.03
54453;BME280;40363;52.270;10.546;2023-06-04T12:21:31;75648.72;;;-147.06;27.57
54453;BME280;40363;52.270;10.546;2023-06-04T12:24:05;75638.47;;;-147.06;27.91
54453;BME280;40363;52.270;10.546;2023-06-04T12:26:32;75677.50;;;-147.06;27.13
54453;BME280;40363;52.270;10.546;2023-06-04T12:29:07;75634.34;;;-147.06;27.08
54453;BME280;40363;52.270;10.546;2023-06-04T12:31:35;75619.97;;;-147.06;26.97
54453;BME280;40363;52.270;10.546;2023-06-04T12:34:02;75661.06;;;-147.06;27.25